createdAt,value
2019-05-23T00:02:12.464Z,25.50
2019-05-23T00:04:45.792Z,25.60
2019-05-23T00:07:18.120Z,25.60
2019-05-23T00:09:51.652Z,25.60
2019-05-23T00:12:23.828Z,25.70
2019-05-23T00:14:54.786Z,25.70
2019-05-23T00:17:29.265Z,25.80
2019-05-23T00:20:01.693Z,25.80
2019-05-23T00:22:32.871Z,25.90
2019-05-23T00:25:06.479Z,25.90
2019-05-23T00:27:39.107Z,26.00
2019-05-23T00:30:11.282Z,26.00
2019-05-23T00:32:44.968Z,26.10
2019-05-23T00:35:17.318Z,26.10
2019-05-23T00:37:49.807Z,26.20
2019-05-23T00:40:21.075Z,26.30
2019-05-23T00:42:53.243Z,26.30
2019-05-23T00:45:24.527Z,26.30
2019-05-23T00:47:57.447Z,26.40
2019-05-23T00:50:29.216Z,26.40
2019-05-23T00:53:00.840Z,26.50
2019-05-23T00:55:32.836Z,26.50
2019-05-23T00:58:04.494Z,26.50
2019-05-23T01:00:35.369Z,26.60
2019-05-23T01:03:07.803Z,26.60
2019-05-23T01:05:39.450Z,26.60
2019-05-23T01:08:12.933Z,26.70
2019-05-23T01:10:45.484Z,26.70
2019-05-23T01:13:16.917Z,26.70
2019-05-23T01:15:49.806Z,26.80
2019-05-23T01:18:20.880Z,26.80
2019-05-23T01:20:53.166Z,26.90
2019-05-23T01:23:25.450Z,27.00
2019-05-23T01:25:57.357Z,27.00
2019-05-23T01:28:29.193Z,27.00
2019-05-23T01:31:02.553Z,27.10
2019-05-23T01:33:34.067Z,27.10
2019-05-23T01:36:06.355Z,27.20
2019-05-23T01:38:37.696Z,27.20
2019-05-23T01:41:10.475Z,27.30
2019-05-23T01:43:44.064Z,27.30
2019-05-23T01:46:18.566Z,27.40
2019-05-23T01:48:51.446Z,27.40
2019-05-23T01:51:26.771Z,27.50
2019-05-23T01:53:58.266Z,27.60
2019-05-23T01:56:33.552Z,27.60
2019-05-23T01:59:07.693Z,27.70
2019-05-23T02:01:39.996Z,27.70
2019-05-23T02:04:11.507Z,27.80
2019-05-23T02:06:43.874Z,27.90
2019-05-23T02:09:14.997Z,27.90
2019-05-23T02:11:46.020Z,28.00
2019-05-23T02:14:16.764Z,28.10
2019-05-23T02:16:48.040Z,28.10
2019-05-23T02:19:20.428Z,28.20
2019-05-23T02:21:51.630Z,28.30
2019-05-23T02:24:22.799Z,28.40
2019-05-23T02:26:53.973Z,28.50
2019-05-23T02:29:26.441Z,28.60
2019-05-23T02:31:58.090Z,28.70
2019-05-23T02:34:30.067Z,28.80
2019-05-23T02:37:02.495Z,28.80
2019-05-23T02:39:35.507Z,28.90
2019-05-23T02:42:08.576Z,28.90
2019-05-23T02:44:42.078Z,29.00
2019-05-23T02:47:14.996Z,29.10
2019-05-23T02:49:48.491Z,29.20
2019-05-23T02:52:22.684Z,29.30
2019-05-23T02:54:56.965Z,29.30
2019-05-23T02:57:30.069Z,29.40
2019-05-23T03:00:04.362Z,29.50
2019-05-23T03:02:39.292Z,29.60
2019-05-23T03:05:12.841Z,29.70
2019-05-23T03:07:46.197Z,29.70
2019-05-23T03:10:18.093Z,29.80
2019-05-23T03:12:50.877Z,29.90
2019-05-23T03:15:24.234Z,30.00
2019-05-23T03:17:57.689Z,30.10
2019-05-23T03:20:30.613Z,30.20
2019-05-23T03:23:06.648Z,30.20
2019-05-23T03:25:42.165Z,30.30
2019-05-23T03:28:14.688Z,30.40
2019-05-23T03:30:48.054Z,30.50
2019-05-23T03:33:21.194Z,30.50
2019-05-23T03:35:54.596Z,30.60
2019-05-23T03:38:26.795Z,30.70
2019-05-23T03:40:59.109Z,30.70
2019-05-23T03:43:30.486Z,30.80
2019-05-23T03:46:02.805Z,30.80
2019-05-23T03:48:34.927Z,30.90
2019-05-23T03:51:07.408Z,31.00
2019-05-23T03:53:39.383Z,31.10
2019-05-23T03:56:11.455Z,31.10
2019-05-23T03:58:42.837Z,31.20
2019-05-23T04:01:14.514Z,31.30
2019-05-23T04:03:46.251Z,31.40
2019-05-23T04:06:18.837Z,31.40
2019-05-23T04:08:50.097Z,31.50
2019-05-23T04:11:21.679Z,31.50
2019-05-23T04:13:52.481Z,31.60
2019-05-23T04:16:30.455Z,31.60
2019-05-23T04:18:58.827Z,31.70
2019-05-23T04:21:29.741Z,31.70
2019-05-23T04:24:01.951Z,31.80
2019-05-23T04:26:34.787Z,31.90
2019-05-23T04:29:08.440Z,31.90
2019-05-23T04:31:39.387Z,31.90
2019-05-23T04:34:11.639Z,32.00
2019-05-23T04:36:42.681Z,32.00
2019-05-23T04:39:14.709Z,32.10
2019-05-23T04:41:46.872Z,32.20
2019-05-23T04:44:18.861Z,32.30
2019-05-23T04:46:50.925Z,32.30
2019-05-23T04:49:22.849Z,32.40
2019-05-23T04:51:54.971Z,32.50
2019-05-23T04:54:27.131Z,32.50
2019-05-23T04:56:58.120Z,32.60
2019-05-23T04:59:29.129Z,32.60
2019-05-23T05:02:01.320Z,32.70
2019-05-23T05:04:33.385Z,32.80
2019-05-23T05:07:04.639Z,32.90
2019-05-23T05:09:35.815Z,32.90
2019-05-23T05:12:08.285Z,32.90
2019-05-23T05:14:40.242Z,32.90
2019-05-23T05:17:12.513Z,32.90
2019-05-23T05:19:44.468Z,32.90
2019-05-23T05:22:16.783Z,32.90
2019-05-23T05:24:47.648Z,32.90
2019-05-23T05:27:19.784Z,32.90
2019-05-23T05:29:51.971Z,32.90
2019-05-23T05:32:23.816Z,32.80
2019-05-23T05:34:54.681Z,32.70
2019-05-23T05:37:28.842Z,32.40
2019-05-23T05:40:01.097Z,32.30
2019-05-23T05:42:33.598Z,32.10
2019-05-23T05:45:05.369Z,32.00
2019-05-23T05:47:37.557Z,31.90
2019-05-23T05:50:09.808Z,31.90
2019-05-23T05:52:41.732Z,32.00
2019-05-23T05:55:15.306Z,32.10
2019-05-23T05:57:46.423Z,32.10
2019-05-23T06:00:21.140Z,32.10
2019-05-23T06:03:03.686Z,32.10
2019-05-23T06:05:27.882Z,32.10
2019-05-23T06:08:00.559Z,32.00
2019-05-23T06:10:32.807Z,32.10
2019-05-23T06:13:04.240Z,32.00
2019-05-23T06:15:37.275Z,32.10
2019-05-23T06:18:09.391Z,32.10
2019-05-23T06:20:42.292Z,32.10
2019-05-23T06:23:14.020Z,32.10
2019-05-23T06:25:44.909Z,32.10
2019-05-23T06:28:16.841Z,32.10
2019-05-23T06:30:47.873Z,31.90
2019-05-23T06:33:23.848Z,31.60
2019-05-23T06:35:52.544Z,31.20
2019-05-23T06:38:23.786Z,30.80
2019-05-23T06:40:56.904Z,30.50
2019-05-23T06:43:31.006Z,30.10
2019-05-23T06:46:03.224Z,29.70
2019-05-23T06:48:34.081Z,29.20
2019-05-23T06:51:06.162Z,28.80
2019-05-23T06:56:36.980Z,28.10
2019-05-23T06:59:08.223Z,27.80
2019-05-23T07:01:40.509Z,27.60
2019-05-23T07:04:11.779Z,27.50
2019-05-23T07:06:43.963Z,27.40
2019-05-23T07:09:16.720Z,27.30
2019-05-23T07:11:47.985Z,27.20
2019-05-23T07:14:18.911Z,27.20
2019-05-23T07:16:50.951Z,27.20
2019-05-23T07:19:22.352Z,27.20
2019-05-23T07:21:53.528Z,27.30
2019-05-23T07:24:27.622Z,27.30
2019-05-23T07:26:57.907Z,27.40
2019-05-23T07:29:29.953Z,27.40
2019-05-23T07:32:02.011Z,27.40
2019-05-23T07:34:33.135Z,27.40
2019-05-23T07:37:04.094Z,27.40
2019-05-23T07:39:35.463Z,27.40
2019-05-23T07:42:08.288Z,27.60
2019-05-23T07:44:48.187Z,27.60
2019-05-23T07:47:14.922Z,27.60
2019-05-23T07:49:46.008Z,27.70
2019-05-23T07:52:17.269Z,27.80
2019-05-23T07:54:49.593Z,27.80
2019-05-23T07:57:21.012Z,27.90
2019-05-23T07:59:52.005Z,27.90
2019-05-23T08:02:26.535Z,27.90
2019-05-23T08:04:57.747Z,27.70
2019-05-23T08:07:32.469Z,27.70
2019-05-23T08:10:02.313Z,27.60
2019-05-23T08:12:34.313Z,27.60
2019-05-23T08:15:08.712Z,27.60
2019-05-23T08:17:40.824Z,27.60
2019-05-23T08:20:13.496Z,27.60
2019-05-23T08:22:44.440Z,27.70
2019-05-23T08:25:16.460Z,27.70
2019-05-23T08:27:47.667Z,27.80
2019-05-23T08:30:18.687Z,27.90
2019-05-23T08:32:49.666Z,28.00
2019-05-23T08:35:20.640Z,28.10
2019-05-23T08:37:51.788Z,28.30
2019-05-23T08:40:23.739Z,28.40
2019-05-23T08:42:55.040Z,28.50
2019-05-23T08:45:26.047Z,28.60
2019-05-23T08:47:57.584Z,28.80
2019-05-23T08:50:29.436Z,28.90
2019-05-23T08:53:00.303Z,29.00
2019-05-23T08:55:32.347Z,29.10
2019-05-23T08:58:05.155Z,29.10
2019-05-23T09:00:37.596Z,29.20
2019-05-23T09:03:08.992Z,29.30
2019-05-23T09:05:42.435Z,29.30
2019-05-23T09:08:16.966Z,29.30
2019-05-23T09:10:47.743Z,29.30
2019-05-23T09:13:19.581Z,29.30
2019-05-23T09:15:52.948Z,29.20
2019-05-23T09:18:25.102Z,29.20
2019-05-23T09:20:57.154Z,29.10
2019-05-23T09:23:29.518Z,29.10
2019-05-23T09:26:00.545Z,29.10
2019-05-23T09:28:33.097Z,29.10
2019-05-23T09:31:04.509Z,29.10
2019-05-23T09:33:35.829Z,29.10
2019-05-23T09:36:07.506Z,29.10
2019-05-23T09:38:38.568Z,29.10
2019-05-23T09:41:09.801Z,29.00
2019-05-23T09:43:41.195Z,29.00
2019-05-23T09:46:13.866Z,28.90
2019-05-23T09:48:44.767Z,28.90
2019-05-23T09:51:16.138Z,28.80
2019-05-23T09:53:47.797Z,28.80
2019-05-23T09:56:18.997Z,28.70
2019-05-23T09:58:49.895Z,28.70
2019-05-23T10:01:21.922Z,28.70
2019-05-23T10:03:54.055Z,28.70
2019-05-23T10:06:25.307Z,28.70
2019-05-23T10:08:56.764Z,28.60
2019-05-23T10:11:28.707Z,28.60
2019-05-23T10:14:01.148Z,28.60
2019-05-23T10:16:33.372Z,28.60
2019-05-23T10:19:04.554Z,28.60
2019-05-23T10:21:37.011Z,28.60
2019-05-23T10:24:09.866Z,28.60
2019-05-23T10:26:40.709Z,28.60
2019-05-23T10:29:12.723Z,28.60
2019-05-23T10:31:44.461Z,28.60
2019-05-23T10:34:16.357Z,28.50
2019-05-23T10:36:47.565Z,28.60
2019-05-23T10:39:19.784Z,28.60
2019-05-23T10:41:54.398Z,28.50
2019-05-23T10:44:25.563Z,28.60
2019-05-23T10:46:58.109Z,28.60
2019-05-23T10:49:28.971Z,28.60
2019-05-23T10:52:01.637Z,28.60
2019-05-23T10:54:32.968Z,28.60
2019-05-23T10:57:04.815Z,28.60
2019-05-23T10:59:36.970Z,28.60
2019-05-23T11:02:09.294Z,28.60
2019-05-23T11:04:41.305Z,28.60
2019-05-23T11:07:13.089Z,28.60
2019-05-23T11:09:44.723Z,28.60
2019-05-23T11:12:16.916Z,28.50
2019-05-23T11:14:48.302Z,28.50
2019-05-23T11:17:20.274Z,28.50
2019-05-23T11:19:51.325Z,28.50
2019-05-23T11:22:24.065Z,28.50
2019-05-23T11:24:55.434Z,28.50
2019-05-23T11:27:26.972Z,28.40
2019-05-23T11:29:59.169Z,28.40
2019-05-23T11:32:31.244Z,28.40
2019-05-23T11:35:03.341Z,28.30
2019-05-23T11:37:35.772Z,28.30
2019-05-23T11:40:09.944Z,28.20
2019-05-23T11:42:41.085Z,28.20
2019-05-23T11:45:13.262Z,28.10
2019-05-23T11:47:44.406Z,28.10
2019-05-23T11:50:15.389Z,28.10
2019-05-23T11:52:47.234Z,28.00
2019-05-23T11:55:18.561Z,28.00
2019-05-23T11:57:50.480Z,28.00
2019-05-23T12:00:26.564Z,27.90
2019-05-23T12:02:57.719Z,27.90
2019-05-23T12:05:30.840Z,27.90
2019-05-23T12:08:03.352Z,27.90
2019-05-23T12:10:35.559Z,27.90
2019-05-23T12:13:07.918Z,27.90
2019-05-23T12:15:41.110Z,27.90
2019-05-23T12:18:12.126Z,27.90
2019-05-23T12:20:43.485Z,27.80
2019-05-23T12:23:14.657Z,27.80
2019-05-23T12:25:46.656Z,27.80
2019-05-23T12:28:18.755Z,27.80
2019-05-23T12:30:49.749Z,27.80
2019-05-23T12:33:23.668Z,27.70
2019-05-23T12:35:55.297Z,27.70
2019-05-23T12:38:27.330Z,27.70
2019-05-23T12:40:59.253Z,27.70
2019-05-23T12:43:31.259Z,27.60
2019-05-23T12:46:03.388Z,27.60
2019-05-23T12:48:36.662Z,27.60
2019-05-23T12:51:09.134Z,27.60
2019-05-23T12:53:41.130Z,27.60
2019-05-23T12:56:12.513Z,27.60
2019-05-23T12:58:45.252Z,27.60
2019-05-23T13:01:17.704Z,27.60
2019-05-23T13:03:48.847Z,27.50
2019-05-23T13:06:19.977Z,27.50
2019-05-23T13:08:51.840Z,27.50
2019-05-23T13:11:23.315Z,27.40
2019-05-23T13:13:55.306Z,27.40
2019-05-23T13:16:27.771Z,27.40
2019-05-23T13:18:59.886Z,27.40
2019-05-23T13:21:31.274Z,27.40
2019-05-23T13:24:02.333Z,27.40
2019-05-23T13:26:34.771Z,27.40
2019-05-23T13:29:06.759Z,27.40
2019-05-23T13:31:38.373Z,27.40
2019-05-23T13:34:09.287Z,27.40
2019-05-23T13:36:41.078Z,27.30
2019-05-23T13:39:13.940Z,27.40
2019-05-23T13:41:45.676Z,27.30
2019-05-23T13:44:33.103Z,27.30
2019-05-23T13:46:50.039Z,27.30
2019-05-23T13:49:24.263Z,27.40
2019-05-23T13:51:54.487Z,27.40
2019-05-23T13:54:26.668Z,27.30
2019-05-23T13:56:59.040Z,27.30
2019-05-23T13:59:30.805Z,27.40
2019-05-23T14:02:01.997Z,27.30
2019-05-23T14:04:33.082Z,27.30
2019-05-23T14:07:04.205Z,27.30
2019-05-23T14:09:36.174Z,27.30
2019-05-23T14:12:20.664Z,27.20
2019-05-23T14:14:41.088Z,27.20
2019-05-23T14:17:14.280Z,27.20
2019-05-23T14:19:46.559Z,27.20
2019-05-23T14:22:19.001Z,27.10
2019-05-23T14:24:50.940Z,27.00
2019-05-23T14:27:23.296Z,26.80
2019-05-23T14:29:54.258Z,26.70
2019-05-23T14:32:26.597Z,26.60
2019-05-23T14:34:57.516Z,26.50
2019-05-23T14:37:29.765Z,26.40
2019-05-23T14:40:04.742Z,26.30
2019-05-23T14:42:37.011Z,26.20
2019-05-23T14:45:11.254Z,26.10
2019-05-23T14:47:42.993Z,26.00
2019-05-23T14:50:15.431Z,25.90
2019-05-23T14:52:48.054Z,25.80
2019-05-23T14:55:20.175Z,25.70
2019-05-23T14:57:51.188Z,25.60
2019-05-23T15:00:24.475Z,25.50
2019-05-23T15:02:55.754Z,25.50
2019-05-23T15:05:27.964Z,25.50
2019-05-23T15:07:58.986Z,25.40
2019-05-23T15:10:31.658Z,25.40
2019-05-23T15:13:02.693Z,25.40
2019-05-23T15:15:33.720Z,25.50
2019-05-23T15:18:06.141Z,25.50
2019-05-23T15:20:38.401Z,25.50
2019-05-23T15:23:09.993Z,25.50
2019-05-23T15:25:41.871Z,25.60
2019-05-23T15:28:13.279Z,25.60
2019-05-23T15:30:44.631Z,25.50
2019-05-23T15:33:16.629Z,25.60
2019-05-23T15:35:48.754Z,25.60
2019-05-23T15:38:20.600Z,25.60
2019-05-23T15:40:52.018Z,25.60
2019-05-23T15:43:23.868Z,25.60
2019-05-23T15:45:55.094Z,25.60
2019-05-23T15:48:27.347Z,25.60
2019-05-23T15:50:59.268Z,25.60
2019-05-23T15:53:32.562Z,25.60
2019-05-23T15:56:23.961Z,25.50
2019-05-23T15:58:38.431Z,25.50
2019-05-23T16:01:12.176Z,25.50
2019-05-23T16:03:45.924Z,25.50
2019-05-23T16:06:20.773Z,25.50
2019-05-23T16:08:54.633Z,25.40
2019-05-23T16:11:27.046Z,25.40
2019-05-23T16:13:59.193Z,25.30
2019-05-23T16:16:30.292Z,25.30
2019-05-23T16:19:01.486Z,25.30
2019-05-23T16:21:33.391Z,25.30
2019-05-23T16:24:05.984Z,25.30
2019-05-23T16:26:38.448Z,25.30
2019-05-23T16:29:11.967Z,25.30
2019-05-23T16:31:43.191Z,25.30
2019-05-23T16:34:14.519Z,25.30
2019-05-23T16:36:45.712Z,25.30
2019-05-23T16:39:19.726Z,25.30
2019-05-23T16:41:50.881Z,25.20
2019-05-23T16:44:21.952Z,25.20
2019-05-23T16:46:53.840Z,25.30
2019-05-23T16:49:25.790Z,25.30
2019-05-23T16:51:57.764Z,25.20
2019-05-23T16:54:30.840Z,25.30
2019-05-23T16:57:04.288Z,25.20
2019-05-23T16:59:37.792Z,25.20
2019-05-23T17:02:12.705Z,25.20
2019-05-23T17:04:46.268Z,25.20
2019-05-23T17:07:18.608Z,25.20
2019-05-23T17:10:06.798Z,25.10
2019-05-23T17:12:24.522Z,25.10
2019-05-23T17:14:56.799Z,25.10
2019-05-23T17:17:49.431Z,25.10
2019-05-23T17:20:18.533Z,25.00
2019-05-23T17:22:37.282Z,25.00
2019-05-23T17:25:12.200Z,25.00
2019-05-23T17:27:45.507Z,25.00
2019-05-23T17:30:18.986Z,24.90
2019-05-23T17:32:51.034Z,24.90
2019-05-23T17:35:24.320Z,24.90
2019-05-23T17:37:55.230Z,24.90
2019-05-23T17:40:26.332Z,24.90
2019-05-23T17:42:58.216Z,24.90
2019-05-23T17:45:32.569Z,24.80
2019-05-23T17:48:04.428Z,24.80
2019-05-23T17:50:35.695Z,24.80
2019-05-23T17:53:07.703Z,24.80
2019-05-23T17:55:40.034Z,24.80
2019-05-23T17:58:12.942Z,24.80
2019-05-23T18:00:47.892Z,24.80
2019-05-23T18:03:19.948Z,24.80
2019-05-23T18:05:52.897Z,24.80
2019-05-23T18:08:24.647Z,24.80
2019-05-23T18:10:58.587Z,24.80
2019-05-23T18:13:31.404Z,24.80
2019-05-23T18:16:02.639Z,24.70
2019-05-23T18:18:35.120Z,24.70
2019-05-23T18:21:07.668Z,24.80
2019-05-23T18:23:42.661Z,24.70
2019-05-23T18:26:14.593Z,24.70
2019-05-23T18:28:46.755Z,24.70
2019-05-23T18:31:19.068Z,24.80
2019-05-23T18:33:50.004Z,24.80
2019-05-23T18:36:21.965Z,24.80
2019-05-23T18:38:54.135Z,24.80
2019-05-23T18:41:25.911Z,24.80
2019-05-23T18:44:00.099Z,24.90
2019-05-23T18:46:37.484Z,24.90
2019-05-23T18:49:08.073Z,24.90
2019-05-23T18:51:39.647Z,24.90
2019-05-23T18:54:11.157Z,24.90
2019-05-23T18:56:43.193Z,24.90
2019-05-23T18:59:15.206Z,25.00
2019-05-23T19:01:47.152Z,25.00
2019-05-23T19:04:18.075Z,25.00
2019-05-23T19:06:50.318Z,25.00
2019-05-23T19:09:23.434Z,25.00
2019-05-23T19:11:55.655Z,25.00
2019-05-23T19:14:27.916Z,25.00
2019-05-23T19:17:00.394Z,25.00
2019-05-23T19:19:31.668Z,25.00
2019-05-23T19:22:02.878Z,25.00
2019-05-23T19:24:35.770Z,25.00
2019-05-23T19:27:07.306Z,25.00
2019-05-23T19:29:39.664Z,25.00
2019-05-23T19:32:11.161Z,25.00
2019-05-23T19:34:43.679Z,25.10
2019-05-23T19:37:15.795Z,25.10
2019-05-23T19:39:47.068Z,25.10
2019-05-23T19:42:19.319Z,25.10
2019-05-23T19:44:51.358Z,25.10
2019-05-23T19:47:23.507Z,25.10
2019-05-23T19:49:55.514Z,25.20
2019-05-23T19:52:27.041Z,25.10
2019-05-23T19:54:59.597Z,25.10
2019-05-23T19:57:31.069Z,25.20
2019-05-23T20:00:02.308Z,25.10
2019-05-23T20:02:35.587Z,25.10
2019-05-23T20:05:09.016Z,25.10
2019-05-23T20:07:40.117Z,25.10
2019-05-23T20:10:13.105Z,25.20
2019-05-23T20:12:44.728Z,25.10
2019-05-23T20:15:17.078Z,25.10
2019-05-23T20:17:51.610Z,25.10
2019-05-23T20:20:23.358Z,25.10
2019-05-23T20:22:55.426Z,25.10
2019-05-23T20:25:28.357Z,25.10
2019-05-23T20:28:00.680Z,25.10
2019-05-23T20:30:34.434Z,25.10
2019-05-23T20:33:05.636Z,25.10
2019-05-23T20:35:36.837Z,25.00
2019-05-23T20:38:07.984Z,25.00
2019-05-23T20:40:39.270Z,25.00
2019-05-23T20:43:11.669Z,25.00
2019-05-23T20:45:43.635Z,25.00
2019-05-23T20:48:16.070Z,25.00
2019-05-23T20:50:48.155Z,25.00
2019-05-23T20:53:21.000Z,25.00
2019-05-23T20:55:51.992Z,25.00
2019-05-23T20:58:24.404Z,25.00
2019-05-23T21:00:56.553Z,24.90
2019-05-23T21:03:29.755Z,24.90
2019-05-23T21:06:02.361Z,24.90
2019-05-23T21:08:33.473Z,24.90
2019-05-23T21:11:04.456Z,24.90
2019-05-23T21:13:36.611Z,24.90
2019-05-23T21:16:08.742Z,24.90
2019-05-23T21:18:41.127Z,24.90
2019-05-23T21:21:12.351Z,24.80
2019-05-23T21:23:44.389Z,24.90
2019-05-23T21:26:16.498Z,24.90
2019-05-23T21:28:47.761Z,24.80
2019-05-23T21:31:20.941Z,24.90
2019-05-23T21:33:52.774Z,24.80
2019-05-23T21:36:24.747Z,24.80
2019-05-23T21:38:57.508Z,24.80
2019-05-23T21:41:29.273Z,24.80
2019-05-23T21:44:02.487Z,24.80
2019-05-23T21:46:36.438Z,24.80
2019-05-23T21:49:07.575Z,24.80
2019-05-23T21:51:40.127Z,24.80
2019-05-23T21:54:12.199Z,24.80
2019-05-23T21:56:44.306Z,24.70
2019-05-23T21:59:16.549Z,24.70
2019-05-23T22:01:48.911Z,24.70
2019-05-23T22:04:22.032Z,24.70
2019-05-23T22:06:55.758Z,24.70
2019-05-23T22:09:27.991Z,24.70
2019-05-23T22:11:58.879Z,24.70
2019-05-23T22:14:30.160Z,24.70
2019-05-23T22:17:03.954Z,24.70
2019-05-23T22:19:36.683Z,24.70
2019-05-23T22:22:09.529Z,24.70
2019-05-23T22:24:41.585Z,24.70
2019-05-23T22:27:15.429Z,24.70
2019-05-23T22:29:46.574Z,24.70
2019-05-23T22:32:19.830Z,24.70
2019-05-23T22:34:53.166Z,24.70
2019-05-23T22:37:24.534Z,24.70
2019-05-23T22:39:55.719Z,24.70
2019-05-23T22:42:27.569Z,24.70
2019-05-23T22:44:58.491Z,24.70
2019-05-23T22:47:29.680Z,24.70
2019-05-23T22:50:01.628Z,24.70
2019-05-23T22:52:32.670Z,24.70
2019-05-23T22:55:03.877Z,24.70
2019-05-23T22:57:36.395Z,24.80
2019-05-23T23:00:09.782Z,24.80
2019-05-23T23:02:45.753Z,24.70
2019-05-23T23:05:15.914Z,24.70
2019-05-23T23:07:48.213Z,24.70
2019-05-23T23:10:19.304Z,24.70
2019-05-23T23:12:50.272Z,24.70
2019-05-23T23:15:21.178Z,24.70
2019-05-23T23:17:53.385Z,24.80
2019-05-23T23:20:25.576Z,24.80
2019-05-23T23:22:56.620Z,24.80
2019-05-23T23:25:28.830Z,24.80
2019-05-23T23:28:00.809Z,24.80
2019-05-23T23:30:33.254Z,24.80
2019-05-23T23:33:04.691Z,24.80
2019-05-23T23:35:37.495Z,24.90
2019-05-23T23:38:09.698Z,24.90
2019-05-23T23:40:42.241Z,24.90
2019-05-23T23:43:14.403Z,24.90
2019-05-23T23:45:46.743Z,24.90
2019-05-23T23:48:21.855Z,25.00
2019-05-23T23:50:54.533Z,25.00
2019-05-23T23:53:27.091Z,25.00
2019-05-23T23:55:59.481Z,25.00
2019-05-23T23:58:31.177Z,25.00
